Latest Coastal Weather Observations for Arlington Reef

IDQ60701

Issued at 9:31 am EST Wednesday 22 April 2015 (issued every 10 minutes, with the page automatically refreshed every 10 minutes)

About coastal observations | Map of coastal stations | Coastal observations for QLD | Marine services | Other Formats
Station Details ID: 200879 Name: ARLINGTON REEF Lat: -16.72 Lon: 146.11 Height: 0.0 m
Data from the previous 72 hours. | See also: Recent months at Arlington Reef
Date/Time
EST
Temp

°C
Wind Pressure Rain
since 9am
mm
Weather Cloud Vis
km
Sea
Height
m
Swell
Dir
 
Speed
knots
Gust
knots
hPa Trend Height
m
Period
s
Dir
22/09:30am - SSE 24 28 1013.1 - - - - - - - - -
22/09:00am - SSE 23 27 1012.8 - - - - - - - - -
22/08:30am - SSE 23 27 1012.5 - - - - - - - - -
22/08:00am - SSE 18 25 1012.5 - - - - - - - - -
22/07:30am - S 23 29 1012.2 - - - - - - - - -
22/07:00am - SE 20 24 1011.9 - - - - - - - - -
22/06:30am - SSE 21 25 1011.7 - - - - - - - - -
22/06:00am - SSE 21 25 1011.5 - - - - - - - - -
22/05:30am - SSE 21 25 1011.1 - - - - - - - - -
22/05:00am - SSE 21 25 1010.8 - - - - - - - - -
22/04:30am - SSE 20 26 1010.8 - - - - - - - - -
22/04:00am - SSE 20 24 1010.8 - - - - - - - - -
22/03:30am - SSE 19 23 1011.0 - - - - - - - - -
22/03:00am - SSE 20 24 1011.2 - - - - - - - - -
22/02:30am - SSE 19 23 1011.3 - - - - - - - - -
22/02:00am - SSE 18 21 1011.5 - - - - - - - - -
22/01:30am - SSE 16 20 1012.0 - - - - - - - - -
22/01:00am - SSE 16 19 1012.2 - - - - - - - - -
22/12:30am - SSE 17 20 1012.5 - - - - - - - - -
22/12:00am - SSE 18 22 1012.8 - - - - - - - - -
 
Date/Time
EST
Temp

°C
Wind Pressure Rain
since 9am
mm
Weather Cloud Vis
km
Sea
Height
m
Swell
Dir
 
Speed
knots
Gust
knots
hPa Trend Height
m
Period
s
Dir
21/11:30pm - SSE 18 21 1013.2 - - - - - - - - -
21/11:00pm - SSE 18 21 1013.5 - - - - - - - - -
21/10:30pm - SSE 18 22 1013.6 - - - - - - - - -
21/10:00pm - SSE 18 21 1013.9 - - - - - - - - -
21/09:30pm - SSE 18 21 1013.9 - - - - - - - - -
21/09:00pm - SE 19 21 1013.8 - - - - - - - - -
21/08:30pm - SE 20 23 1013.5 - - - - - - - - -
21/08:00pm - SSE 21 24 1013.2 - - - - - - - - -
21/07:30pm - SSE 21 24 1012.9 - - - - - - - - -
21/07:00pm - SSE 22 26 1012.4 - - - - - - - - -
21/06:30pm - SSE 22 26 1012.2 - - - - - - - - -
21/06:00pm - SSE 22 26 1011.9 - - - - - - - - -
21/05:30pm - SSE 23 28 1011.6 - - - - - - - - -
21/05:00pm - SSE 22 27 1011.2 - - - - - - - - -
21/04:30pm - SSE 25 29 1011.2 - - - - - - - - -
21/04:00pm - SSE 24 28 1010.9 - - - - - - - - -
21/03:30pm - SSE 24 28 1010.8 - - - - - - - - -
21/03:00pm - SSE 25 29 1011.1 - - - - - - - - -
21/02:30pm - SSE 23 28 1011.7 - - - - - - - - -
21/02:00pm - SSE 25 29 1011.7 - - - - - - - - -
21/01:30pm - SSE 24 30 1011.9 - - - - - - - - -
21/01:00pm - SSE 25 31 1012.3 - - - - - - - - -
21/12:30pm - SSE 24 28 1012.8 - - - - - - - - -
21/12:00pm - SSE 23 28 1013.2 - - - - - - - - -
21/11:30am - SSE 25 29 1013.6 - - - - - - - - -
21/11:00am - SSE 24 28 1014.1 - - - - - - - - -
21/10:30am - SSE 27 31 1014.4 - - - - - - - - -
21/10:00am - SSE 26 31 1014.4 - - - - - - - - -
21/09:30am - SSE 27 33 1013.9 - - - - - - - - -
21/09:00am - S 27 32 1013.6 - - - - - - - - -
21/08:30am - S 24 27 1013.5 - - - - - - - - -
21/08:00am - S 25 29 1013.2 - - - - - - - - -
21/07:30am - S 25 32 1013.1 - - - - - - - - -
21/07:00am - S 25 30 1012.8 - - - - - - - - -
21/06:30am - S 25 30 1012.4 - - - - - - - - -
21/06:00am - S 24 29 1012.1 - - - - - - - - -
21/05:30am - SSE 25 31 1012.0 - - - - - - - - -
21/05:00am - SSE 26 32 1011.9 - - - - - - - - -
21/04:30am - S 28 33 1011.6 - - - - - - - - -
21/04:00am - S 26 32 1011.6 - - - - - - - - -
21/03:30am - S 27 31 1011.8 - - - - - - - - -
21/03:00am - SSE 29 33 1011.7 - - - - - - - - -
21/02:44am - SSE 21 29 1011.8 - - - - - - - - -
21/02:30am - SE 19 22 1012.1 - - - - - - - - -
21/02:00am - SE 18 21 1012.3 - - - - - - - - -
21/01:30am - SE 18 20 1012.7 - - - - - - - - -
21/01:00am - ESE 12 14 1013.1 - - - - - - - - -
21/12:30am - E 12 13 1013.5 - - - - - - - - -
21/12:00am - ESE 13 17 1013.8 - - - - - - - - -
 
Date/Time
EST
Temp

°C
Wind Pressure Rain
since 9am
mm
Weather Cloud Vis
km
Sea
Height
m
Swell
Dir
 
Speed
knots
Gust
knots
hPa Trend Height
m
Period
s
Dir
20/11:30pm - SE 16 19 1013.7 - - - - - - - - -
20/11:00pm - SE 15 20 1013.7 - - - - - - - - -
20/10:30pm - SE 17 20 1013.7 - - - - - - - - -
20/10:00pm - SE 18 22 1013.8 - - - - - - - - -
20/09:30pm - SE 21 25 1013.9 - - - - - - - - -
20/09:00pm - SSE 17 23 1013.9 - - - - - - - - -
20/08:30pm - SSE 21 26 1013.9 - - - - - - - - -
20/08:00pm - SSE 20 24 1013.7 - - - - - - - - -
20/07:30pm - SSE 21 25 1013.3 - - - - - - - - -
20/07:00pm - SE 18 21 1012.9 - - - - - - - - -
20/06:30pm - SSE 19 23 1012.4 - - - - - - - - -
20/06:00pm - SSE 18 21 1012.3 - - - - - - - - -
20/05:30pm - SSE 19 23 1012.2 - - - - - - - - -
20/05:00pm - SSE 18 21 1011.8 - - - - - - - - -
20/04:30pm - SSE 19 22 1011.6 - - - - - - - - -
20/04:00pm - SSE 17 21 1011.5 - - - - - - - - -
20/03:30pm - SE 18 21 1011.5 - - - - - - - - -
20/03:00pm - SE 19 22 1011.6 - - - - - - - - -
20/02:30pm - SE 19 22 1011.8 - - - - - - - - -
20/02:00pm - SE 19 22 1012.0 - - - - - - - - -
20/01:30pm - SE 19 22 1012.2 - - - - - - - - -
20/01:00pm - SE 19 22 1012.6 - - - - - - - - -
20/12:30pm - SE 18 22 1012.9 - - - - - - - - -
20/12:00pm - SE 19 22 1013.1 - - - - - - - - -
20/11:30am - SE 19 22 1013.7 - - - - - - - - -
20/11:00am - SE 18 21 1013.9 - - - - - - - - -
20/10:30am - SE 18 22 1014.2 - - - - - - - - -
20/10:00am - SE 17 20 1014.4 - - - - - - - - -
20/09:30am - SE 18 23 1014.4 - - - - - - - - -
20/09:00am - SE 19 22 1014.2 - - - - - - - - -
20/08:30am - SE 17 21 1014.2 - - - - - - - - -
20/08:00am - SE 18 21 1013.9 - - - - - - - - -
20/07:30am - SE 19 21 1013.6 - - - - - - - - -
20/07:00am - SE 18 21 1013.3 - - - - - - - - -
20/06:30am - SE 17 23 1013.0 - - - - - - - - -
20/06:00am - SE 17 21 1012.8 - - - - - - - - -
20/05:30am - SE 17 20 1012.6 - - - - - - - - -
20/05:00am - SSE 17 20 1012.5 - - - - - - - - -
20/04:30am - SE 16 19 1012.5 - - - - - - - - -
20/04:00am - SE 18 21 1012.6 - - - - - - - - -
20/03:30am - SE 17 21 1012.5 - - - - - - - - -
20/03:00am - SE 17 19 1012.7 - - - - - - - - -
20/02:30am - SSE 17 20 1012.9 - - - - - - - - -
20/02:00am - SSE 19 22 1013.1 - - - - - - - - -
20/01:30am - SSE 17 20 1013.4 - - - - - - - - -
20/01:00am - SE 18 20 1014.0 - - - - - - - - -
20/12:30am - SE 17 19 1014.3 - - - - - - - - -
20/12:00am - SE 17 21 1014.4 - - - - - - - - -
 
Date/Time
EST
Temp

°C
Wind Pressure Rain
since 9am
mm
Weather Cloud Vis
km
Sea
Height
m
Swell
Dir
 
Speed
knots
Gust
knots
hPa Trend Height
m
Period
s
Dir
19/11:30pm - SE 17 21 1014.7 - - - - - - - - -
19/11:00pm - SE 17 21 1015.0 - - - - - - - - -
19/10:30pm - SE 17 20 1014.9 - - - - - - - - -
19/10:00pm - SE 18 20 1014.6 - - - - - - - - -
19/09:30pm - SE 18 21 1014.4 - - - - - - - - -
19/09:00pm - SSE 18 21 1014.1 - - - - - - - - -
19/08:30pm - SSE 20 25 1013.6 - - - - - - - - -
19/08:00pm - SSE 19 22 1013.3 - - - - - - - - -
19/07:30pm - SSE 19 23 1013.0 - - - - - - - - -
19/07:00pm - SSE 19 23 1012.6 - - - - - - - - -
19/06:30pm - SSE 20 22 1012.4 - - - - - - - - -
19/06:00pm - SSE 21 24 1012.3 - - - - - - - - -
19/05:30pm - SSE 19 22 1012.4 - - - - - - - - -
19/05:00pm - SSE 19 23 1011.9 - - - - - - - - -
19/04:30pm - SSE 21 23 1011.7 - - - - - - - - -
19/04:00pm - SSE 19 23 1012.0 - - - - - - - - -
19/03:30pm - SSE 19 22 1012.4 - - - - - - - - -
19/03:00pm - SSE 17 20 1012.6 - - - - - - - - -
19/02:30pm - SSE 17 19 1012.8 - - - - - - - - -
19/02:00pm - SSE 17 20 1013.0 - - - - - - - - -
19/01:30pm - SSE 15 18 1013.3 - - - - - - - - -
19/01:00pm - SSE 15 18 1013.9 - - - - - - - - -
19/12:30pm - SE 16 19 1014.3 - - - - - - - - -
19/12:00pm - SE 17 20 1014.7 - - - - - - - - -
19/11:30am - SSE 17 19 1015.2 - - - - - - - - -
19/11:00am - SE 16 19 1015.8 - - - - - - - - -
19/10:30am - SE 18 21 1015.9 - - - - - - - - -
19/10:00am - SE 17 20 1016.0 - - - - - - - - -

Other Formats:

Comma delimited format used in spreadsheet applications
http://www.bom.gov.au/fwo/IDQ60701/IDQ60701.94284.axf

JavaScript Object Notation format (JSON) in row-major order
http://www.bom.gov.au/fwo/IDQ60701/IDQ60701.94284.json